Time;durP1;ratioP1;P1;durP2;ratioP2;P2;SDS_P1;SDS_P2;PMS_P1;PMS_P2;Temp;Humidity;BMP_temperature;BMP_pressure;BME280_temperature;BME280_humidity;BME280_pressure;Samples;Min_cycle;Max_cycle;Signal;HPM_P1;HPM_P2
2021/12/10 00:02:15;;;;;;;3.92;0.20;;;;;18.60;100763.00;;;;4875444;29;20076;-74
2021/12/10 00:04:45;;;;;;;0.00;0.00;;;;;18.50;100773.00;;;;4875876;29;20052;-73
2021/12/10 00:07:18;;;;;;;0.00;0.00;;;;;18.40;100779.00;;;;4875820;29;20113;-73
2021/12/10 00:09:53;;;;;;;0.00;0.00;;;;;18.30;100778.00;;;;4875715;29;20072;-74
2021/12/10 00:12:36;;;;;;;0.10;0.10;;;;;18.40;100785.00;;;;4876200;29;20045;-73
2021/12/10 00:15:07;;;;;;;2.05;0.20;;;;;18.50;100771.00;;;;4875907;29;20132;-73
2021/12/10 00:17:36;;;;;;;0.00;0.00;;;;;18.40;100756.00;;;;4875707;29;20101;-75
2021/12/10 00:20:08;;;;;;;0.28;0.20;;;;;18.40;100779.00;;;;4875146;29;20513;-74
2021/12/10 00:22:46;;;;;;;0.00;0.00;;;;;18.30;100772.00;;;;4875684;29;20509;-74
2021/12/10 00:25:19;;;;;;;0.05;0.05;;;;;18.30;100755.00;;;;4875342;29;20412;-74
2021/12/10 00:27:52;;;;;;;0.00;0.00;;;;;18.10;100764.00;;;;4875776;29;20406;-76
2021/12/10 00:30:26;;;;;;;0.20;0.17;;;;;18.10;100780.00;;;;4875103;29;20509;-75
2021/12/10 00:33:10;;;;;;;0.00;0.00;;;;;18.20;100768.00;;;;4875646;29;20416;-75
2021/12/10 00:35:41;;;;;;;0.47;0.35;;;;;18.30;100796.00;;;;4875284;29;20093;-74
2021/12/10 00:38:11;;;;;;;0.10;0.10;;;;;18.10;100776.00;;;;4875235;29;20536;-75
2021/12/10 00:40:42;;;;;;;0.63;0.20;;;;;18.00;100777.00;;;;4875365;29;20057;-75
2021/12/10 00:43:11;;;;;;;0.00;0.00;;;;;18.10;100797.00;;;;4874866;29;20053;-73
2021/12/10 00:45:41;;;;;;;0.75;0.13;;;;;18.00;100813.00;;;;4875151;29;20049;-75
2021/12/10 00:48:11;;;;;;;0.00;0.00;;;;;18.10;100770.00;;;;4875192;29;20049;-75
2021/12/10 00:50:46;;;;;;;0.00;0.00;;;;;18.00;100775.00;;;;4875441;29;20109;-75
2021/12/10 00:53:18;;;;;;;0.00;0.00;;;;;18.00;100777.00;;;;4875055;29;20056;-75
2021/12/10 00:55:48;;;;;;;0.00;0.00;;;;;18.00;100791.00;;;;4874816;29;20097;-75
2021/12/10 00:58:19;;;;;;;0.00;0.00;;;;;17.90;100776.00;;;;4878696;29;20477;-74
2021/12/10 01:00:52;;;;;;;0.03;0.03;;;;;17.80;100788.00;;;;4882519;29;20051;-73
2021/12/10 01:03:37;;;;;;;0.00;0.00;;;;;17.90;100771.00;;;;4877949;29;20049;-74
2021/12/10 01:06:11;;;;;;;0.10;0.05;;;;;17.80;100795.00;;;;4878535;29;20076;-74
2021/12/10 01:08:43;;;;;;;1.88;0.30;;;;;17.90;100797.00;;;;4906609;29;20100;-75
2021/12/10 01:11:20;;;;;;;0.00;0.00;;;;;17.90;100784.00;;;;4894073;29;20094;-74
2021/12/10 01:13:57;;;;;;;0.00;0.00;;;;;17.90;100759.00;;;;4889828;29;20044;-74
2021/12/10 01:27:36;;;;;;;0.00;0.00;;;;;17.70;100782.00;;;;4874808;29;20080;-73
2021/12/10 01:30:12;;;;;;;0.00;0.00;;;;;17.60;100783.00;;;;4874515;29;20544;-75
2021/12/10 01:32:48;;;;;;;2.33;2.20;;;;;17.50;100789.00;;;;4874612;29;20156;-73
2021/12/10 01:35:31;;;;;;;1.35;0.20;;;;;17.70;100788.00;;;;4874227;29;20049;-73
2021/12/10 01:38:04;;;;;;;0.00;0.00;;;;;17.60;100791.00;;;;4874506;29;20045;-74
2021/12/10 01:40:36;;;;;;;0.00;0.00;;;;;17.60;100774.00;;;;4872923;29;20036;-74
2021/12/10 01:43:08;;;;;;;0.00;0.00;;;;;17.60;100756.00;;;;4873879;29;20140;-73
2021/12/10 01:45:46;;;;;;;271.70;40.75;;;;;17.60;100750.00;;;;4874286;29;20048;-74
2021/12/10 01:48:25;;;;;;;0.00;0.00;;;;;17.40;100784.00;;;;4874036;29;20132;-76
2021/12/10 01:50:56;;;;;;;0.00;0.00;;;;;17.30;100768.00;;;;4874167;29;20076;-75
2021/12/10 01:53:27;;;;;;;0.00;0.00;;;;;17.10;100776.00;;;;4888410;29;20060;-74
2021/12/10 01:56:04;;;;;;;0.00;0.00;;;;;17.00;100756.00;;;;4873634;29;20045;-75
2021/12/10 01:58:34;;;;;;;0.00;0.00;;;;;16.80;100777.00;;;;4874349;29;20056;-75
2021/12/10 02:01:08;;;;;;;0.00;0.00;;;;;16.90;100754.00;;;;4874247;29;20049;-75
2021/12/10 02:03:40;;;;;;;0.00;0.00;;;;;16.80;100774.00;;;;4873538;29;20117;-75
2021/12/10 02:06:10;;;;;;;0.00;0.00;;;;;16.70;100768.00;;;;4873855;29;20458;-75
2021/12/10 02:08:39;;;;;;;0.00;0.00;;;;;16.70;100759.00;;;;4873480;29;20057;-75
2021/12/10 02:11:10;;;;;;;0.00;0.00;;;;;16.80;100757.00;;;;4874048;29;20417;-75
2021/12/10 02:13:39;;;;;;;0.00;0.00;;;;;16.70;100780.00;;;;4873913;29;20060;-75
2021/12/10 02:16:09;;;;;;;0.00;0.00;;;;;16.60;100774.00;;;;4873455;29;20105;-74
2021/12/10 02:18:39;;;;;;;0.00;0.00;;;;;16.60;100754.00;;;;4873453;29;20053;-73
2021/12/10 02:21:09;;;;;;;0.00;0.00;;;;;16.50;100780.00;;;;4873460;29;20155;-73
2021/12/10 02:23:41;;;;;;;0.00;0.00;;;;;16.30;100764.00;;;;4874134;29;20056;-73
2021/12/10 02:26:15;;;;;;;0.00;0.00;;;;;16.20;100764.00;;;;4873626;29;20573;-75
2021/12/10 02:28:45;;;;;;;0.00;0.00;;;;;16.10;100762.00;;;;4872265;29;20147;-75
2021/12/10 02:31:15;;;;;;;0.00;0.00;;;;;16.10;100765.00;;;;4887863;29;20176;-75
2021/12/10 02:33:45;;;;;;;0.00;0.00;;;;;16.00;100743.00;;;;4872936;29;20056;-75
2021/12/10 02:36:15;;;;;;;0.00;0.00;;;;;16.10;100755.00;;;;4873504;29;20785;-74
2021/12/10 02:38:47;;;;;;;0.00;0.00;;;;;16.20;100751.00;;;;4872092;29;20053;-74
2021/12/10 02:41:21;;;;;;;0.00;0.00;;;;;16.20;100737.00;;;;4873519;29;20049;-74
2021/12/10 02:43:52;;;;;;;0.00;0.00;;;;;16.30;100740.00;;;;4872400;29;20613;-74
2021/12/10 02:46:22;;;;;;;0.00;0.00;;;;;16.20;100734.00;;;;4873659;29;20056;-75
2021/12/10 02:48:52;;;;;;;0.00;0.00;;;;;16.00;100753.00;;;;4873619;29;20045;-74
2021/12/10 02:51:25;;;;;;;0.75;0.10;;;;;16.00;100719.00;;;;4872709;29;20648;-74
2021/12/10 02:53:55;;;;;;;0.57;0.10;;;;;16.00;100751.00;;;;4873133;29;20121;-74
2021/12/10 02:56:25;;;;;;;0.00;0.00;;;;;15.80;100744.00;;;;4872723;29;20049;-74
2021/12/10 02:58:59;;;;;;;0.00;0.00;;;;;15.70;100738.00;;;;4873651;29;20497;-74
2021/12/10 03:01:55;;;;;;;0.00;0.00;;;;;15.60;100732.00;;;;4872275;29;20655;-75
2021/12/10 03:04:27;;;;;;;0.00;0.00;;;;;15.50;100731.00;;;;4871968;29;20085;-74
2021/12/10 03:06:59;;;;;;;0.00;0.00;;;;;15.50;100726.00;;;;4872783;29;20387;-74
2021/12/10 03:09:29;;;;;;;0.00;0.00;;;;;15.60;100731.00;;;;4872891;29;20052;-73
2021/12/10 03:12:00;;;;;;;0.00;0.00;;;;;15.50;100732.00;;;;4873499;29;20057;-75
2021/12/10 03:14:33;;;;;;;0.08;0.08;;;;;15.40;100706.00;;;;4873336;29;20597;-75
2021/12/10 03:17:09;;;;;;;0.00;0.00;;;;;15.40;100700.00;;;;4873198;29;20097;-74
2021/12/10 03:19:39;;;;;;;0.00;0.00;;;;;15.40;100704.00;;;;4873591;29;20434;-74
2021/12/10 03:22:08;;;;;;;1.35;1.25;;;;;15.40;100708.00;;;;4875942;29;20090;-74
2021/12/10 03:24:38;;;;;;;0.55;0.20;;;;;15.30;100685.00;;;;4876814;29;20113;-74
2021/12/10 03:27:10;;;;;;;0.00;0.00;;;;;15.20;100700.00;;;;4876540;29;20520;-74
2021/12/10 03:29:43;;;;;;;1.08;0.75;;;;;15.40;100675.00;;;;4876425;29;20125;-74
2021/12/10 03:32:25;;;;;;;0.00;0.00;;;;;15.40;100670.00;;;;4876496;29;20068;-75
2021/12/10 03:34:58;;;;;;;0.00;0.00;;;;;15.50;100706.00;;;;4876359;29;20523;-74
2021/12/10 03:37:28;;;;;;;0.00;0.00;;;;;15.60;100699.00;;;;4876845;29;20057;-74
2021/12/10 03:39:57;;;;;;;0.00;0.00;;;;;15.60;100674.00;;;;4876632;29;20056;-74
2021/12/10 03:42:27;;;;;;;0.00;0.00;;;;;15.50;100681.00;;;;4876430;29;20057;-74
2021/12/10 03:44:57;;;;;;;0.00;0.00;;;;;15.50;100684.00;;;;4876627;29;20846;-73
2021/12/10 03:47:26;;;;;;;0.00;0.00;;;;;15.40;100652.00;;;;4876577;29;20041;-74
2021/12/10 03:49:56;;;;;;;0.00;0.00;;;;;15.20;100649.00;;;;4876126;29;20057;-74
2021/12/10 03:52:26;;;;;;;0.00;0.00;;;;;15.20;100652.00;;;;4876016;29;20105;-74
2021/12/10 03:54:58;;;;;;;0.00;0.00;;;;;15.20;100638.00;;;;4876169;29;20057;-74
2021/12/10 03:57:28;;;;;;;0.00;0.00;;;;;15.20;100633.00;;;;4876423;29;20060;-73
2021/12/10 03:59:58;;;;;;;0.10;0.10;;;;;15.20;100617.00;;;;4876002;29;20064;-73
2021/12/10 04:02:27;;;;;;;0.00;0.00;;;;;15.10;100630.00;;;;4876116;29;20088;-74
2021/12/10 04:04:57;;;;;;;0.00;0.00;;;;;15.20;100613.00;;;;4876048;29;20068;-74
2021/12/10 04:07:27;;;;;;;0.00;0.00;;;;;15.30;100620.00;;;;4876091;29;20078;-74
2021/12/10 04:09:56;;;;;;;0.00;0.00;;;;;15.40;100614.00;;;;4876288;29;20045;-74
2021/12/10 04:12:25;;;;;;;0.00;0.00;;;;;15.50;100586.00;;;;4875035;29;20061;-74
2021/12/10 04:14:55;;;;;;;0.00;0.00;;;;;15.60;100593.00;;;;4876224;29;20045;-74
2021/12/10 04:17:25;;;;;;;0.00;0.00;;;;;15.50;100616.00;;;;4875841;29;20053;-74
2021/12/10 04:19:54;;;;;;;0.00;0.00;;;;;15.70;100601.00;;;;4875552;29;20725;-74
2021/12/10 04:22:32;;;;;;;0.00;0.00;;;;;15.80;100582.00;;;;4875289;29;20101;-74
2021/12/10 04:25:06;;;;;;;0.00;0.00;;;;;15.60;100579.00;;;;4876052;29;20045;-74
2021/12/10 04:27:36;;;;;;;0.00;0.00;;;;;15.50;100592.00;;;;4875642;29;20081;-74
2021/12/10 04:30:10;;;;;;;0.00;0.00;;;;;15.30;100570.00;;;;4875576;29;20478;-74
2021/12/10 04:32:41;;;;;;;0.00;0.00;;;;;15.20;100575.00;;;;4874302;29;20077;-74
2021/12/10 04:35:18;;;;;;;0.00;0.00;;;;;15.00;100566.00;;;;4875394;29;20081;-73
2021/12/10 04:37:49;;;;;;;0.00;0.00;;;;;14.90;100583.00;;;;4876100;29;20467;-74
2021/12/10 04:40:21;;;;;;;0.00;0.00;;;;;14.90;100566.00;;;;4875599;29;20044;-74
2021/12/10 04:42:52;;;;;;;0.00;0.00;;;;;14.90;100557.00;;;;4874622;29;20136;-74
2021/12/10 04:45:21;;;;;;;0.00;0.00;;;;;15.00;100561.00;;;;4875584;29;20065;-73
2021/12/10 04:47:51;;;;;;;0.00;0.00;;;;;15.00;100541.00;;;;4874709;29;20093;-74
2021/12/10 04:50:24;;;;;;;0.00;0.00;;;;;15.00;100563.00;;;;4875272;29;20045;-74
2021/12/10 04:52:56;;;;;;;0.00;0.00;;;;;15.00;100551.00;;;;4875037;29;20041;-75
2021/12/10 04:55:25;;;;;;;0.00;0.00;;;;;15.20;100564.00;;;;4875061;29;20053;-75
2021/12/10 04:57:55;;;;;;;5.82;0.25;;;;;15.20;100533.00;;;;4875225;29;20569;-75
2021/12/10 05:00:29;;;;;;;0.00;0.00;;;;;15.10;100561.00;;;;4874884;29;20106;-74
2021/12/10 05:03:05;;;;;;;0.00;0.00;;;;;15.10;100564.00;;;;4875847;29;20121;-74
2021/12/10 05:05:35;;;;;;;0.00;0.00;;;;;15.10;100561.00;;;;4874310;29;20037;-74
2021/12/10 05:08:06;;;;;;;0.00;0.00;;;;;15.00;100555.00;;;;4875507;29;20059;-73
2021/12/10 05:10:36;;;;;;;0.00;0.00;;;;;15.00;100543.00;;;;4875739;29;20123;-73
2021/12/10 05:13:06;;;;;;;0.00;0.00;;;;;14.90;100543.00;;;;4875733;29;20077;-74
2021/12/10 05:15:38;;;;;;;0.00;0.00;;;;;15.00;100531.00;;;;4874557;29;20135;-74
2021/12/10 05:18:12;;;;;;;0.00;0.00;;;;;15.00;100518.00;;;;4874755;29;20137;-74
2021/12/10 05:20:44;;;;;;;0.00;0.00;;;;;14.80;100514.00;;;;4874720;29;20076;-74
2021/12/10 05:23:14;;;;;;;0.00;0.00;;;;;14.70;100550.00;;;;4874586;29;20124;-74
2021/12/10 05:25:44;;;;;;;0.00;0.00;;;;;14.70;100510.00;;;;4875280;29;20136;-74
2021/12/10 05:28:14;;;;;;;0.00;0.00;;;;;14.70;100532.00;;;;4874526;29;20048;-74
2021/12/10 05:30:46;;;;;;;0.00;0.00;;;;;14.80;100517.00;;;;4874910;29;20101;-74
2021/12/10 05:33:18;;;;;;;0.00;0.00;;;;;15.10;100509.00;;;;4874377;29;20055;-75
2021/12/10 05:35:49;;;;;;;0.00;0.00;;;;;15.20;100491.00;;;;4874466;29;20765;-74
2021/12/10 05:38:21;;;;;;;0.00;0.00;;;;;15.50;100505.00;;;;4874045;29;20048;-74
2021/12/10 05:40:52;;;;;;;0.00;0.00;;;;;15.60;100499.00;;;;4874401;29;20041;-74
2021/12/10 05:43:22;;;;;;;0.00;0.00;;;;;15.50;100509.00;;;;4873920;29;20139;-74
2021/12/10 05:45:52;;;;;;;0.00;0.00;;;;;15.60;100494.00;;;;4874298;29;20056;-74
2021/12/10 05:48:23;;;;;;;0.03;0.00;;;;;15.70;100493.00;;;;4873400;29;20520;-74
2021/12/10 05:50:53;;;;;;;0.00;0.00;;;;;15.70;100516.00;;;;4873990;29;20080;-75
2021/12/10 05:53:22;;;;;;;0.47;0.17;;;;;15.50;100522.00;;;;4874263;29;20052;-74
2021/12/10 05:55:52;;;;;;;0.00;0.00;;;;;15.40;100515.00;;;;4874080;29;20128;-74
2021/12/10 05:58:22;;;;;;;0.00;0.00;;;;;15.30;100524.00;;;;4873225;29;20395;-74
2021/12/10 06:01:04;;;;;;;0.00;0.00;;;;;15.20;100519.00;;;;4874607;29;20088;-73
2021/12/10 06:03:37;;;;;;;0.00;0.00;;;;;15.20;100544.00;;;;4873700;29;20058;-74
2021/12/10 06:06:08;;;;;;;0.00;0.00;;;;;15.10;100545.00;;;;4872915;29;20063;-74
2021/12/10 06:08:38;;;;;;;0.00;0.00;;;;;15.00;100524.00;;;;4874725;29;20412;-73
2021/12/10 06:11:08;;;;;;;0.00;0.00;;;;;14.80;100550.00;;;;4874052;29;20135;-73
2021/12/10 06:13:38;;;;;;;0.00;0.00;;;;;14.70;100514.00;;;;4873389;29;20409;-74
2021/12/10 06:16:07;;;;;;;0.00;0.00;;;;;14.50;100539.00;;;;4873827;29;20080;-73
2021/12/10 06:18:37;;;;;;;0.00;0.00;;;;;14.40;100541.00;;;;4873491;29;20141;-74
2021/12/10 06:21:07;;;;;;;0.00;0.00;;;;;14.40;100555.00;;;;4887878;29;20056;-74
2021/12/10 06:23:36;;;;;;;0.00;0.00;;;;;14.20;100554.00;;;;4873376;29;20053;-75
2021/12/10 06:26:06;;;;;;;0.10;0.10;;;;;14.20;100563.00;;;;4873775;29;20064;-74
2021/12/10 06:28:44;;;;;;;0.00;0.00;;;;;14.00;100547.00;;;;4873837;29;20053;-75
2021/12/10 06:31:16;;;;;;;0.00;0.00;;;;;14.00;100544.00;;;;4873958;29;20401;-74
2021/12/10 06:33:47;;;;;;;0.00;0.00;;;;;13.90;100558.00;;;;4873707;29;20060;-74
2021/12/10 06:36:17;;;;;;;0.00;0.00;;;;;13.90;100557.00;;;;4873500;29;20052;-74
2021/12/10 06:38:48;;;;;;;0.00;0.00;;;;;13.90;100552.00;;;;4873721;29;20052;-74
2021/12/10 06:41:18;;;;;;;0.00;0.00;;;;;13.90;100535.00;;;;4873120;29;20417;-74
2021/12/10 06:43:47;;;;;;;0.00;0.00;;;;;13.80;100550.00;;;;4871356;29;20056;-74
2021/12/10 06:46:17;;;;;;;0.00;0.00;;;;;13.80;100561.00;;;;4872968;29;20117;-74
2021/12/10 06:48:46;;;;;;;0.00;0.00;;;;;13.70;100559.00;;;;4872319;29;20536;-75
2021/12/10 06:51:20;;;;;;;0.00;0.00;;;;;13.60;100538.00;;;;4873019;29;20398;-74
2021/12/10 06:53:50;;;;;;;0.00;0.00;;;;;13.50;100566.00;;;;4873066;29;20073;-74
2021/12/10 06:56:22;;;;;;;0.00;0.00;;;;;13.50;100555.00;;;;4872373;29;20057;-74
2021/12/10 06:58:53;;;;;;;0.00;0.00;;;;;13.50;100541.00;;;;4873018;29;20406;-74
2021/12/10 07:01:27;;;;;;;0.00;0.00;;;;;13.40;100536.00;;;;4873917;29;20057;-75
2021/12/10 07:04:00;;;;;;;0.00;0.00;;;;;13.40;100544.00;;;;4873060;29;20048;-74
2021/12/10 07:06:30;;;;;;;0.00;0.00;;;;;13.50;100542.00;;;;4872985;29;20049;-74
2021/12/10 07:09:00;;;;;;;0.00;0.00;;;;;13.40;100567.00;;;;4872862;29;20819;-72
2021/12/10 07:11:30;;;;;;;0.00;0.00;;;;;13.30;100562.00;;;;4871648;29;20965;-74
2021/12/10 07:13:59;;;;;;;0.00;0.00;;;;;13.20;100557.00;;;;4872776;29;20125;-74
2021/12/10 07:16:31;;;;;;;0.00;0.00;;;;;13.20;100570.00;;;;4872252;29;20088;-74
2021/12/10 07:19:04;;;;;;;0.00;0.00;;;;;13.20;100573.00;;;;4872891;29;20413;-74
2021/12/10 07:21:34;;;;;;;0.00;0.00;;;;;13.20;100529.00;;;;4873720;29;20525;-74
2021/12/10 07:24:08;;;;;;;0.00;0.00;;;;;13.10;100535.00;;;;4872794;29;20441;-73
2021/12/10 07:26:39;;;;;;;0.00;0.00;;;;;13.10;100561.00;;;;4872868;29;20480;-74
2021/12/10 07:29:10;;;;;;;0.00;0.00;;;;;12.90;100556.00;;;;4873681;29;20490;-74
2021/12/10 07:31:42;;;;;;;0.00;0.00;;;;;12.90;100524.00;;;;4873258;29;20550;-74
2021/12/10 07:34:13;;;;;;;0.00;0.00;;;;;12.90;100553.00;;;;4872630;29;20144;-74
2021/12/10 07:36:43;;;;;;;0.00;0.00;;;;;12.90;100556.00;;;;4872779;29;20490;-75
2021/12/10 07:39:13;;;;;;;0.00;0.00;;;;;13.00;100552.00;;;;4872614;29;20105;-74
2021/12/10 07:41:42;;;;;;;0.00;0.00;;;;;13.00;100543.00;;;;4872929;29;20053;-74
2021/12/10 07:44:13;;;;;;;0.00;0.00;;;;;13.10;100560.00;;;;4872283;29;20517;-74
2021/12/10 07:46:43;;;;;;;0.00;0.00;;;;;13.00;100528.00;;;;4873237;29;20052;-74
2021/12/10 07:49:17;;;;;;;0.00;0.00;;;;;12.90;100567.00;;;;4872537;29;20060;-74
2021/12/10 07:51:50;;;;;;;0.00;0.00;;;;;12.90;100547.00;;;;4872428;29;20509;-74
2021/12/10 07:54:19;;;;;;;0.00;0.00;;;;;12.90;100564.00;;;;4873092;29;20128;-74
2021/12/10 07:56:53;;;;;;;0.00;0.00;;;;;12.90;100568.00;;;;4873128;29;20450;-74
2021/12/10 07:59:23;;;;;;;0.00;0.00;;;;;12.80;100566.00;;;;4873283;29;20053;-74
2021/12/10 08:01:52;;;;;;;0.00;0.00;;;;;12.90;100560.00;;;;4872998;29;20486;-74
2021/12/10 08:04:21;;;;;;;0.00;0.00;;;;;12.90;100534.00;;;;4871922;29;20535;-74
2021/12/10 08:06:51;;;;;;;0.00;0.00;;;;;13.00;100560.00;;;;4873688;29;20101;-74
2021/12/10 08:09:20;;;;;;;0.00;0.00;;;;;13.00;100571.00;;;;4876762;29;20584;-73
2021/12/10 08:11:50;;;;;;;0.00;0.00;;;;;12.90;100559.00;;;;4875495;29;20049;-74
2021/12/10 08:14:19;;;;;;;0.00;0.00;;;;;12.90;100570.00;;;;4876109;29;20057;-73
2021/12/10 08:16:49;;;;;;;0.00;0.00;;;;;12.90;100567.00;;;;4875973;29;20053;-74
2021/12/10 08:19:18;;;;;;;0.00;0.00;;;;;12.80;100561.00;;;;4874477;29;20040;-74
2021/12/10 08:21:48;;;;;;;0.00;0.00;;;;;12.70;100556.00;;;;4875914;29;20053;-74
2021/12/10 08:24:17;;;;;;;0.00;0.00;;;;;12.70;100567.00;;;;4875588;29;20057;-74
2021/12/10 08:26:47;;;;;;;0.00;0.00;;;;;12.80;100597.00;;;;4875510;29;20105;-74
2021/12/10 08:29:19;;;;;;;0.10;0.10;;;;;12.80;100591.00;;;;4875639;29;20573;-75
2021/12/10 08:31:49;;;;;;;1.48;0.57;;;;;12.80;100574.00;;;;4875071;29;20093;-73
2021/12/10 08:34:19;;;;;;;0.00;0.00;;;;;12.80;100556.00;;;;4875216;29;20061;-74
2021/12/10 08:36:49;;;;;;;0.00;0.00;;;;;12.90;100577.00;;;;4875400;29;20462;-74
2021/12/10 08:39:18;;;;;;;0.00;0.00;;;;;12.90;100561.00;;;;4875625;29;20041;-74
2021/12/10 08:41:48;;;;;;;0.00;0.00;;;;;12.90;100569.00;;;;4875365;29;20060;-74
2021/12/10 08:44:18;;;;;;;0.00;0.00;;;;;12.80;100567.00;;;;4875106;29;20132;-74
2021/12/10 08:46:47;;;;;;;0.00;0.00;;;;;12.90;100591.00;;;;4875366;29;20603;-75
2021/12/10 08:49:17;;;;;;;0.00;0.00;;;;;13.10;100566.00;;;;4875580;29;20633;-74
2021/12/10 08:51:51;;;;;;;0.00;0.00;;;;;13.20;100598.00;;;;4875924;29;20101;-73
2021/12/10 08:54:29;;;;;;;0.00;0.00;;;;;13.20;100572.00;;;;4874874;29;20132;-74
2021/12/10 08:56:59;;;;;;;0.00;0.00;;;;;13.20;100579.00;;;;4874986;29;20067;-75
2021/12/10 08:59:29;;;;;;;0.00;0.00;;;;;13.30;100591.00;;;;4875311;29;20049;-74
2021/12/10 09:02:01;;;;;;;0.00;0.00;;;;;13.30;100593.00;;;;4874696;29;20414;-74
2021/12/10 09:04:33;;;;;;;0.00;0.00;;;;;13.30;100561.00;;;;4873783;29;20871;-74
2021/12/10 09:07:08;;;;;;;;;;;;;13.30;100603.00;;;;4875088;29;20144;-75
2021/12/10 09:09:41;;;;;;;0.00;0.00;;;;;13.50;100576.00;;;;4875138;29;19934;-73
2021/12/10 09:12:16;;;;;;;0.00;0.00;;;;;13.50;100610.00;;;;4874991;29;20420;-75
2021/12/10 09:14:51;;;;;;;1.08;0.85;;;;;13.70;100609.00;;;;4875460;29;20048;-74
2021/12/10 09:17:25;;;;;;;0.00;0.00;;;;;13.80;100570.00;;;;4875185;29;20049;-73
2021/12/10 09:20:01;;;;;;;0.00;0.00;;;;;13.90;100602.00;;;;4873993;29;20391;-75
2021/12/10 09:22:31;;;;;;;0.00;0.00;;;;;14.00;100594.00;;;;4873852;29;20064;-76
2021/12/10 09:25:00;;;;;;;8.77;2.35;;;;;14.20;100596.00;;;;4873441;29;20056;-75
2021/12/10 09:27:30;;;;;;;0.00;0.00;;;;;14.70;100545.00;;;;4874807;29;20049;-75
2021/12/10 09:29:59;;;;;;;0.00;0.00;;;;;15.50;100563.00;;;;4874655;29;20057;-74
2021/12/10 09:32:33;;;;;;;0.00;0.00;;;;;15.20;100582.00;;;;4874523;29;20596;-75
2021/12/10 09:35:06;;;;;;;0.00;0.00;;;;;15.00;100580.00;;;;4873959;29;20432;-75
2021/12/10 09:37:37;;;;;;;0.00;0.00;;;;;15.10;100586.00;;;;4873948;29;20580;-75
2021/12/10 09:40:14;;;;;;;0.00;0.00;;;;;15.00;100562.00;;;;4875050;29;20049;-75
2021/12/10 09:42:45;;;;;;;0.00;0.00;;;;;16.10;100540.00;;;;4874425;29;20322;-75
2021/12/10 09:45:18;;;;;;;0.00;0.00;;;;;15.50;100561.00;;;;4873915;29;20535;-75
2021/12/10 09:47:49;;;;;;;0.00;0.00;;;;;15.40;100572.00;;;;4874036;29;20082;-74
2021/12/10 09:50:23;;;;;;;0.28;0.28;;;;;15.70;100548.00;;;;4874113;29;20061;-74
2021/12/10 09:52:54;;;;;;;0.17;0.17;;;;;16.00;100576.00;;;;4873955;29;20091;-75
2021/12/10 09:55:24;;;;;;;0.05;0.00;;;;;16.20;100565.00;;;;4886378;29;20056;-75
2021/12/10 09:57:54;;;;;;;0.10;0.10;;;;;16.40;100572.00;;;;4873370;29;20458;-75
2021/12/10 10:00:36;;;;;;;0.00;0.00;;;;;16.50;100559.00;;;;4873847;29;20087;-74
2021/12/10 10:03:09;;;;;;;0.00;0.00;;;;;16.70;100575.00;;;;4873452;29;20048;-74
2021/12/10 10:05:43;;;;;;;0.00;0.00;;;;;16.90;100570.00;;;;4873273;29;20497;-75
2021/12/10 10:08:18;;;;;;;0.00;0.00;;;;;17.10;100580.00;;;;4874456;29;20048;-75
2021/12/10 10:10:50;;;;;;;0.00;0.00;;;;;17.20;100586.00;;;;4873717;29;20060;-74
2021/12/10 10:13:24;;;;;;;0.00;0.00;;;;;17.30;100600.00;;;;4874305;29;20049;-75
2021/12/10 10:15:58;;;;;;;0.05;0.03;;;;;18.50;100563.00;;;;4873381;29;20132;-76
2021/12/10 10:18:31;;;;;;;0.00;0.00;;;;;17.60;100578.00;;;;4874180;29;20611;-76
2021/12/10 10:21:09;;;;;;;0.32;0.25;;;;;17.70;100599.00;;;;4873938;29;20079;-73
2021/12/10 10:23:41;;;;;;;0.00;0.00;;;;;18.00;100595.00;;;;4873586;29;20047;-74
2021/12/10 10:26:21;;;;;;;0.00;0.00;;;;;17.90;100575.00;;;;4873710;29;20125;-73
2021/12/10 10:28:52;;;;;;;0.00;0.00;;;;;18.40;100572.00;;;;4873357;29;20132;-74
2021/12/10 10:31:23;;;;;;;0.00;0.00;;;;;18.70;100577.00;;;;4871661;29;20048;-74
2021/12/10 10:33:56;;;;;;;0.00;0.00;;;;;19.10;100575.00;;;;4874059;29;20061;-74
2021/12/10 10:36:30;;;;;;;0.10;0.10;;;;;18.70;100603.00;;;;4872872;29;20112;-74
2021/12/10 10:39:14;;;;;;;0.00;0.00;;;;;18.50;100599.00;;;;4873195;29;20049;-74
2021/12/10 10:41:48;;;;;;;0.00;0.00;;;;;18.80;100573.00;;;;4873524;29;20071;-73
2021/12/10 10:44:18;;;;;;;0.00;0.00;;;;;19.10;100601.00;;;;4873441;29;20049;-74
2021/12/10 10:46:57;;;;;;;0.13;0.13;;;;;18.90;100590.00;;;;4872867;29;20048;-73
2021/12/10 10:49:39;;;;;;;0.22;0.13;;;;;19.10;100590.00;;;;4872979;29;20124;-74
2021/12/10 10:52:17;;;;;;;0.32;0.20;;;;;19.70;100601.00;;;;4873156;29;20459;-73
2021/12/10 10:54:48;;;;;;;0.00;0.00;;;;;20.10;100574.00;;;;4873046;29;20051;-74
2021/12/10 10:57:19;;;;;;;;;;;;;25.00;100401.00;;;;4873770;29;20778;-75
2021/12/10 10:59:53;;;;;;;0.00;0.00;;;;;29.00;100357.00;;;;4871978;29;20010;-73
2021/12/10 11:02:40;;;;;;;0.10;0.10;;;;;29.80;100331.00;;;;4873653;29;20056;-76
2021/12/10 11:05:13;;;;;;;0.65;0.35;;;;;30.20;100330.00;;;;4872651;29;20041;-74
2021/12/10 11:07:51;;;;;;;0.00;0.00;;;;;30.70;100322.00;;;;4873366;29;20663;-73
2021/12/10 11:10:43;;;;;;;0.00;0.00;;;;;31.00;100326.00;;;;4872992;29;20049;-74
2021/12/10 11:13:21;;;;;;;0.00;0.00;;;;;32.20;100335.00;;;;4872641;29;20045;-75
2021/12/10 11:16:07;;;;;;;0.32;0.25;;;;;32.40;100348.00;;;;4871129;29;20076;-74
2021/12/10 11:19:03;;;;;;;0.75;0.30;;;;;30.30;100323.00;;;;4871390;29;20128;-74
2021/12/10 11:21:44;;;;;;;0.38;0.38;;;;;30.90;100325.00;;;;4872338;29;20045;-73
2021/12/10 11:24:34;;;;;;;0.20;0.20;;;;;30.50;100307.00;;;;4873167;29;20132;-74
2021/12/10 11:27:12;;;;;;;0.00;0.00;;;;;30.70;100306.00;;;;4872708;29;20848;-73
2021/12/10 11:29:51;;;;;;;1.65;0.70;;;;;30.30;100312.00;;;;4873317;29;20081;-74
2021/12/10 11:32:33;;;;;;;0.00;0.00;;;;;30.50;100325.00;;;;4873516;29;20053;-74
2021/12/10 11:35:36;;;;;;;0.45;0.45;;;;;30.50;100315.00;;;;4870607;29;20537;-74
2021/12/10 11:38:10;;;;;;;0.88;0.73;;;;;29.30;100320.00;;;;4872718;29;20064;-75
2021/12/10 11:40:51;;;;;;;0.10;0.03;;;;;29.00;100324.00;;;;4872625;29;20116;-72
2021/12/10 11:44:18;;;;;;;0.00;0.00;;;;;28.80;100343.00;;;;4875655;29;20989;-75
2021/12/10 11:47:13;;;;;;;0.00;0.00;;;;;28.90;100366.00;;;;4876063;29;20174;-73
2021/12/10 11:49:42;;;;;;;0.10;0.10;;;;;28.50;100375.00;;;;4876299;29;20524;-72
2021/12/10 11:52:14;;;;;;;0.32;0.10;;;;;26.90;100416.00;;;;4876569;29;20056;-74
2021/12/10 11:54:55;;;;;;;0.20;0.10;;;;;26.40;100468.00;;;;4875983;29;20073;-75
2021/12/10 11:57:36;;;;;;;0.25;0.20;;;;;26.30;100478.00;;;;4876085;29;20421;-74
2021/12/10 12:00:25;;;;;;;0.00;0.00;;;;;26.50;100495.00;;;;4875655;29;20040;-74
2021/12/10 12:03:05;;;;;;;0.57;0.20;;;;;26.90;100488.00;;;;4876440;29;20440;-75
2021/12/10 12:05:40;;;;;;;0.00;0.00;;;;;27.00;100493.00;;;;4876183;29;20044;-76
2021/12/10 12:08:16;;;;;;;0.00;0.00;;;;;27.00;100500.00;;;;4875772;29;20105;-74
2021/12/10 12:10:52;;;;;;;0.47;0.47;;;;;27.10;100520.00;;;;4875580;29;20454;-75
2021/12/10 12:13:51;;;;;;;0.00;0.00;;;;;27.40;100506.00;;;;4875588;29;20120;-74
2021/12/10 12:16:26;;;;;;;0.00;0.00;;;;;27.20;100500.00;;;;4875917;29;20132;-75
2021/12/10 12:19:03;;;;;;;0.00;0.00;;;;;27.10;100497.00;;;;4889243;29;20049;-74
2021/12/10 12:27:08;;;;;;;0.00;0.00;;;;;27.00;100492.00;;;;4875270;29;20124;-75
2021/12/10 12:30:04;;;;;;;0.00;0.00;;;;;27.30;100483.00;;;;4874659;29;20052;-72
2021/12/10 12:32:55;;;;;;;0.00;0.00;;;;;26.50;100470.00;;;;4889422;29;20056;-74
2021/12/10 12:35:33;;;;;;;1.45;0.45;;;;;26.80;100483.00;;;;4875437;29;20084;-74
2021/12/10 12:38:17;;;;;;;0.10;0.10;;;;;27.00;100473.00;;;;4874976;29;20056;-73
2021/12/10 12:41:26;;;;;;;0.10;0.00;;;;;27.20;100473.00;;;;4875509;29;20037;-78
2021/12/10 12:44:35;;;;;;;5.78;2.60;;;;;27.60;100458.00;;;;4874530;29;20048;-76
2021/12/10 12:47:29;;;;;;;0.00;0.00;;;;;28.50;100482.00;;;;4875024;29;20053;-75
2021/12/10 12:50:01;;;;;;;0.00;0.00;;;;;28.40;100481.00;;;;4874784;29;20049;-74
2021/12/10 12:53:00;;;;;;;0.45;0.45;;;;;28.10;100478.00;;;;4874533;29;20532;-76
2021/12/10 12:55:56;;;;;;;1.85;0.25;;;;;27.40;100473.00;;;;4875009;29;20048;-76
2021/12/10 12:58:38;;;;;;;0.00;0.00;;;;;27.60;100450.00;;;;4874041;29;20049;-76